Minot International Airport
KMOT : now visible

Airfield :











YOU CAN JOIN US ON...

 
LOGIN :

Register | Disclaimer

   EN    FR    IT 

 









Legend :    VFR   Marginal VFR   IFR   Intensive IFR   Very Intensive IFR
Visi :
Ceiling :
>= 8 km
>= 3000ft
5 to 8 km
1000 to 3000 ft
1500m to 5 km
500 to 1000 ft
800 to 1500m
200 to 500 ft
< 800m
< 200 ft
Symbols :   Thunderstorms  Fog  Heavy snow  Heavy precipitations  Wind > 20 kt






- Airport Elevation : 1716 ft
- IATA code : MOT


KMOT - Minot International

CURRENT METAR :
  • 281854Z 24017G25KT 10SM CLR 12/M09 A2971 RMK AO2 SLP072 T01171089

EXPIRED METARs :
  • 281754Z 23018G29KT 10SM CLR 11/M09 A2973 RMK AO2 PK WND 24029/1714 SLP077 T01111089 10111 21044 58008
  • 281654Z 22018G26KT 10SM CLR 09/M08 A2974 RMK AO2 PK WND 22026/1653 SLP082 T00891078

TAF KMOT
Valid from the 28 at 18:00 until the 29 at 18:00 UTC


281720Z 2818/2918 25023G34KT P6SM FEW250
FM290600 31018G27KT P6SM BKN025
FM290800 31018KT P6SM BKN025
FM291000 31017G25KT P6SM SCT040
KZMP FIR / North America



MET'MAP, your aeronautical weather chart ! - Copyright ORBIFLY December 2007 - Disclaimer

ORBIFLY MET'MAP TEAM :

Programming & Development : Alexandra Zaïnal
Concept & original design : Baudouin d'Aumeries
Assistance for programming : Marc-Olivier Méhu
Technical & hardware support : Manuel Goepfert

Contact : metmap@orbifly.com




SOURCES & CREDITS :

   NOAA       Earth
Advisory